Pueblo West, Colorado
Current Conditions -  °F | °C
As of 6:53 PM on Saturday 20 Dec 2014 (Local Time) from KPUB Reporting Station
Clear Clear  
Wind Chill: 28°   Ceiling: Unl
Heat Index: 35°   Visibility: 10mi
Dew Point: 21°   Wind: 9mph
Humidity: 57%   Direction: 60°ENE
Pressure: 29.93"   Gusts: NA
Location:  38.4034°N, 104.782°W
Report Text: KPUB 210153Z 06008KT 10SM CLR 02/M06 A2993 RMK AO2 SLP164 T00171061
Loading
Personal Weather Stations






























Interactive Weather Map New forecast layout! Learn more

10-Day Weather Forecast

Advertisements
Track Severe Weather on mobile